Hauptseite
METAR-TAF:

METAR-TAF

Flughäfen :

Memmingen, Deutschland

Breite: 47-59-33N, Länge: 10-14-37E, Höhe: 633 m

Beobachtung

Neuester Wetterbericht von vor 33 Minuten, um 07:20 UTC
Wind 1 kt aus unterschiedlichen Richtungen
Temperatur 7°C
Luftfeuchtigkeit 93%
Luftdruck 1020 hPa
Sichtweite: 3000 m
feuchter Dunst

METAR: EDJA 180720Z VRB01KT 3000 BR NSC 07/06 Q1020

Zeit: 09:53 (07:53 UTC)

Prognose

Neuester Wetterbericht von vor 2 Stunden und 53 Minuten, um 05:00 UTC
Gültige Prognose vom 18 um 06 UTC bis 18 um 15 UTC
Wind 3 kt aus unterschiedlichen Richtungen
Sichtweite 10 km oder mehr
keine Wolken unter 1500 m und keine Kumulonimbus oder Gewitterwolken
Zeitweise
vom 18 um 06 UTC bis 18 um 08 UTC
Sichtweite: 2500 m
feuchter Dunst
Übergehend zu
vom 18 um 07 UTC bis 18 um 09 UTC
Wind 7 kt aus Ost/Nordost

TAF: EDJA 180500Z 1806/1815 VRB03KT CAVOK TEMPO 1806/1808 2500 BR BECMG 1807/1809 06007KT

Wetterbeobachtungen und Prognosen von mehr als 4000 Flughäfen (METAR und TAF Bericht).

Die verfügbaren Stationen werden durch gelbe und rote Markierungen auf der Karte dargestellt.

Führen Sie die Maus auf sie, um den Namen der Station zu sehen.

Darauf klicken, um die Beobachtung von Wetterbeobachtungen und Prognosen zu sehen.

Um die Karte zu ändern : klicken Sie auf den grünen Tasten mit einem schwarzen Kreuz Zum Vergrößern, auf den grünen Button mit einem Gedankenstrich zu verkleinern, oder auf die grünen Pfeile für benachbarte Karten.


METAR-TAF: